createdAt,value
2023-03-02T00:01:33.264Z,1.40
2023-03-02T00:04:00.769Z,2.75
2023-03-02T00:06:28.510Z,2.20
2023-03-02T00:08:55.121Z,2.80
2023-03-02T00:11:21.622Z,2.50
2023-03-02T00:13:48.021Z,2.20
2023-03-02T00:16:14.384Z,2.83
2023-03-02T00:18:40.687Z,3.50
2023-03-02T00:21:10.761Z,2.08
2023-03-02T00:23:37.829Z,2.03
2023-03-02T00:26:05.270Z,1.88
2023-03-02T00:28:31.808Z,4.22
2023-03-02T00:30:58.167Z,3.92
2023-03-02T00:33:24.557Z,6.25
2023-03-02T00:35:51.109Z,5.25
2023-03-02T00:38:17.472Z,3.17
2023-03-02T00:40:45.160Z,2.63
2023-03-02T00:43:11.660Z,3.92
2023-03-02T00:45:37.955Z,2.78
2023-03-02T00:48:04.357Z,3.08
2023-03-02T00:50:30.874Z,2.33
2023-03-02T00:52:57.290Z,2.00
2023-03-02T00:55:23.669Z,1.30
2023-03-02T00:57:55.154Z,1.50
2023-03-02T01:00:24.771Z,1.60
2023-03-02T01:02:51.206Z,2.00
2023-03-02T01:05:17.840Z,1.63
2023-03-02T01:07:44.208Z,1.35
2023-03-02T01:10:10.752Z,1.15
2023-03-02T01:12:37.103Z,1.02
2023-03-02T01:15:04.043Z,0.60
2023-03-02T01:17:30.383Z,1.00
2023-03-02T01:19:57.098Z,0.88
2023-03-02T01:22:23.455Z,0.80
2023-03-02T01:24:49.834Z,0.50
2023-03-02T01:27:16.505Z,1.08
2023-03-02T01:29:42.870Z,1.33
2023-03-02T01:32:09.247Z,0.88
2023-03-02T01:34:35.876Z,1.42
2023-03-02T01:37:02.293Z,1.30
2023-03-02T01:39:28.613Z,1.08
2023-03-02T01:41:55.084Z,1.10
2023-03-02T01:44:39.992Z,0.75
2023-03-02T01:47:13.849Z,0.80
2023-03-02T01:49:43.175Z,1.00
2023-03-02T01:52:12.180Z,1.00
2023-03-02T01:54:40.609Z,1.10
2023-03-02T01:57:07.635Z,0.77
2023-03-02T01:59:35.515Z,0.65
2023-03-02T02:02:03.636Z,0.80
2023-03-02T02:04:30.701Z,0.88
2023-03-02T02:07:00.615Z,1.10
2023-03-02T02:09:28.067Z,1.70
2023-03-02T02:11:54.395Z,1.45
2023-03-02T02:14:21.290Z,1.52
2023-03-02T02:16:48.374Z,2.72
2023-03-02T02:19:33.163Z,2.85
2023-03-02T02:21:59.712Z,2.00
2023-03-02T02:24:30.376Z,2.28
2023-03-02T02:26:57.483Z,2.47
2023-03-02T02:29:38.352Z,1.73
2023-03-02T02:32:13.607Z,2.03
2023-03-02T02:34:46.297Z,2.60
2023-03-02T02:37:15.082Z,2.20
2023-03-02T02:39:44.295Z,1.70
2023-03-02T02:42:13.370Z,2.45
2023-03-02T02:44:39.802Z,2.03
2023-03-02T02:47:14.740Z,2.10
2023-03-02T02:49:41.614Z,1.80
2023-03-02T02:52:10.564Z,1.90
2023-03-02T02:54:37.550Z,1.80
2023-03-02T02:57:04.108Z,1.67
2023-03-02T02:59:33.056Z,1.70
2023-03-02T03:02:00.145Z,1.50
2023-03-02T03:04:28.590Z,1.40
2023-03-02T03:06:54.990Z,2.47
2023-03-02T03:09:21.853Z,2.00
2023-03-02T03:11:50.496Z,2.20
2023-03-02T03:14:18.634Z,2.63
2023-03-02T03:16:46.183Z,1.80
2023-03-02T03:19:18.569Z,2.38
2023-03-02T03:21:45.372Z,1.92
2023-03-02T03:24:11.923Z,2.47
2023-03-02T03:26:38.364Z,2.70
2023-03-02T03:29:04.817Z,2.30
2023-03-02T03:31:31.226Z,2.00
2023-03-02T03:34:00.614Z,2.17
2023-03-02T03:36:31.036Z,1.60
2023-03-02T03:38:57.734Z,1.40
2023-03-02T03:41:24.437Z,1.30
2023-03-02T03:43:51.155Z,1.90
2023-03-02T03:46:17.873Z,1.90
2023-03-02T03:48:44.306Z,1.77
2023-03-02T03:51:10.616Z,2.05
2023-03-02T03:53:37.072Z,1.30
2023-03-02T03:56:03.868Z,1.10
2023-03-02T03:58:31.463Z,1.20
2023-03-02T04:00:58.752Z,1.20
2023-03-02T04:03:25.566Z,1.10
2023-03-02T04:05:52.081Z,1.10
2023-03-02T04:08:18.844Z,1.20
2023-03-02T04:10:45.424Z,0.90
2023-03-02T04:13:12.116Z,1.05
2023-03-02T04:15:39.219Z,0.95
2023-03-02T04:18:05.644Z,1.00
2023-03-02T04:20:32.403Z,0.90
2023-03-02T04:22:59.262Z,0.88
2023-03-02T04:25:26.987Z,0.80
2023-03-02T04:27:53.945Z,0.75
2023-03-02T04:30:22.099Z,1.30
2023-03-02T04:32:48.446Z,1.38
2023-03-02T04:35:15.258Z,1.27
2023-03-02T04:37:42.442Z,1.00
2023-03-02T04:40:09.540Z,1.00
2023-03-02T04:42:36.082Z,1.00
2023-03-02T04:45:02.524Z,1.52
2023-03-02T04:47:28.844Z,1.27
2023-03-02T04:49:56.669Z,1.20
2023-03-02T04:52:23.617Z,1.33
2023-03-02T04:54:49.917Z,1.27
2023-03-02T04:57:16.203Z,1.15
2023-03-02T04:59:42.614Z,1.65
2023-03-02T05:02:09.127Z,0.90
2023-03-02T05:04:35.550Z,1.10
2023-03-02T05:07:02.131Z,2.05
2023-03-02T05:09:30.718Z,2.10
2023-03-02T05:11:58.305Z,2.45
2023-03-02T05:14:25.381Z,2.17
2023-03-02T05:16:51.742Z,2.35
2023-03-02T05:19:18.727Z,6.88
2023-03-02T05:21:45.162Z,2.85
2023-03-02T05:24:12.134Z,2.65
2023-03-02T05:26:39.229Z,4.53
2023-03-02T05:29:05.629Z,4.95
2023-03-02T05:31:36.813Z,4.72
2023-03-02T05:34:06.981Z,4.43
2023-03-02T05:36:33.674Z,3.63
2023-03-02T05:39:00.243Z,4.03
2023-03-02T05:41:27.005Z,3.03
2023-03-02T05:43:53.662Z,2.40
2023-03-02T05:46:21.987Z,2.05
2023-03-02T05:48:48.706Z,2.25
2023-03-02T05:51:15.612Z,1.77
2023-03-02T05:53:41.992Z,1.80
2023-03-02T05:56:08.707Z,2.03
2023-03-02T05:58:35.092Z,2.13
2023-03-02T06:01:01.382Z,2.13
2023-03-02T06:03:28.014Z,2.95
2023-03-02T06:05:54.398Z,2.47
2023-03-02T06:08:21.650Z,1.60
2023-03-02T06:10:50.726Z,1.90
2023-03-02T06:13:17.107Z,1.45
2023-03-02T06:15:43.948Z,2.17
2023-03-02T06:18:12.499Z,1.90
2023-03-02T06:20:39.573Z,2.28
2023-03-02T06:23:05.990Z,2.30
2023-03-02T06:25:32.368Z,1.85
2023-03-02T06:27:58.720Z,2.67
2023-03-02T06:30:25.763Z,2.78
2023-03-02T06:32:52.331Z,2.50
2023-03-02T06:35:18.821Z,2.05
2023-03-02T06:37:45.241Z,2.15
2023-03-02T06:40:13.853Z,3.05
2023-03-02T06:42:40.961Z,1.83
2023-03-02T06:45:07.802Z,3.22
2023-03-02T06:47:34.534Z,2.33
2023-03-02T06:50:00.837Z,1.85
2023-03-02T06:52:27.495Z,2.38
2023-03-02T06:54:54.586Z,2.50
2023-03-02T06:57:20.935Z,1.67
2023-03-02T06:59:47.303Z,2.42
2023-03-02T07:02:13.742Z,2.30
2023-03-02T07:04:40.207Z,2.22
2023-03-02T07:07:06.499Z,1.40
2023-03-02T07:09:34.076Z,2.20
2023-03-02T07:12:00.537Z,1.40
2023-03-02T07:14:26.976Z,1.40
2023-03-02T07:16:53.502Z,1.63
2023-03-02T07:19:19.825Z,1.40
2023-03-02T07:21:46.171Z,1.50
2023-03-02T07:24:12.647Z,1.20
2023-03-02T07:26:38.947Z,1.40
2023-03-02T07:29:05.332Z,2.20
2023-03-02T07:31:32.292Z,1.80
2023-03-02T07:33:58.803Z,1.70
2023-03-02T07:36:26.246Z,2.00
2023-03-02T07:38:52.658Z,2.45
2023-03-02T07:41:18.989Z,2.15
2023-03-02T07:43:45.432Z,2.10
2023-03-02T07:46:11.912Z,2.00
2023-03-02T07:48:38.287Z,1.77
2023-03-02T07:51:05.685Z,2.00
2023-03-02T07:53:32.544Z,2.10
2023-03-02T07:56:00.843Z,2.65
2023-03-02T07:58:27.247Z,3.10
2023-03-02T08:00:53.672Z,2.90
2023-03-02T08:03:19.966Z,3.55
2023-03-02T08:05:46.259Z,4.80
2023-03-02T08:08:12.642Z,4.95
2023-03-02T08:10:38.975Z,4.55
2023-03-02T08:13:05.274Z,3.72
2023-03-02T08:15:31.609Z,4.20
2023-03-02T08:17:57.889Z,4.30
2023-03-02T08:20:24.264Z,6.38
2023-03-02T08:22:51.830Z,5.13
2023-03-02T08:25:18.522Z,5.05
2023-03-02T08:27:46.073Z,3.83
2023-03-02T08:30:13.179Z,3.80
2023-03-02T08:32:40.058Z,5.28
2023-03-02T08:35:07.103Z,4.18
2023-03-02T08:37:33.985Z,4.70
2023-03-02T08:40:00.282Z,4.43
2023-03-02T08:42:26.635Z,6.10
2023-03-02T08:44:53.082Z,4.32
2023-03-02T08:47:19.508Z,5.13
2023-03-02T08:49:47.992Z,4.47
2023-03-02T08:52:15.495Z,5.57
2023-03-02T08:54:42.271Z,5.10
2023-03-02T08:57:10.535Z,5.07
2023-03-02T08:59:36.911Z,7.18
2023-03-02T09:02:03.305Z,5.57
2023-03-02T09:04:29.692Z,4.32
2023-03-02T09:06:56.073Z,3.80
2023-03-02T09:09:22.501Z,6.00
2023-03-02T09:11:48.871Z,4.25
2023-03-02T09:14:15.422Z,4.30
2023-03-02T09:16:42.003Z,3.55
2023-03-02T09:19:08.411Z,5.95
2023-03-02T09:21:35.211Z,7.00
2023-03-02T09:24:01.888Z,4.60
2023-03-02T09:26:28.355Z,6.32
2023-03-02T09:28:55.167Z,4.80
2023-03-02T09:31:21.590Z,5.13
2023-03-02T09:33:48.052Z,5.38
2023-03-02T09:36:22.291Z,4.70
2023-03-02T09:38:48.763Z,3.47
2023-03-02T09:41:21.034Z,3.83
2023-03-02T09:44:05.860Z,4.10
2023-03-02T09:46:32.127Z,4.82
2023-03-02T09:49:17.219Z,6.97
2023-03-02T09:51:46.727Z,5.60
2023-03-02T09:54:19.544Z,4.65
2023-03-02T09:56:48.425Z,5.03
2023-03-02T09:59:17.846Z,4.25
2023-03-02T10:01:48.824Z,4.90
2023-03-02T10:04:22.768Z,5.10
2023-03-02T10:06:54.650Z,4.85
2023-03-02T10:09:21.094Z,5.75
2023-03-02T10:12:08.085Z,3.47
2023-03-02T10:14:39.159Z,7.18
2023-03-02T10:17:08.585Z,4.57
2023-03-02T10:19:44.073Z,3.80
2023-03-02T10:22:18.267Z,4.07
2023-03-02T10:25:04.966Z,3.47
2023-03-02T10:27:36.654Z,2.55
2023-03-02T10:30:12.120Z,3.17
2023-03-02T10:32:42.084Z,3.35
2023-03-02T10:35:14.164Z,2.88
2023-03-02T10:37:40.630Z,1.90
2023-03-02T10:40:11.426Z,2.42
2023-03-02T10:42:40.365Z,4.70
2023-03-02T10:45:25.483Z,3.90
2023-03-02T10:48:05.507Z,5.70
2023-03-02T10:50:32.435Z,5.20
2023-03-02T10:53:01.095Z,5.00
2023-03-02T10:55:28.135Z,3.33
2023-03-02T10:58:17.816Z,4.13
2023-03-02T11:00:44.181Z,3.25
2023-03-02T11:03:20.772Z,5.47
2023-03-02T11:05:47.828Z,4.65
2023-03-02T11:08:18.206Z,5.30
2023-03-02T11:10:55.804Z,5.97
2023-03-02T11:13:28.780Z,6.40
2023-03-02T11:16:02.102Z,5.40
2023-03-02T11:18:28.540Z,4.30
2023-03-02T11:20:57.374Z,5.75
2023-03-02T11:23:26.786Z,4.25
2023-03-02T11:26:02.071Z,4.45
2023-03-02T11:28:35.858Z,4.13
2023-03-02T11:31:04.549Z,3.72
2023-03-02T11:33:35.654Z,3.70
2023-03-02T11:36:08.246Z,4.90
2023-03-02T11:38:53.724Z,6.55
2023-03-02T11:41:38.060Z,3.80
2023-03-02T11:44:21.099Z,3.05
2023-03-02T11:46:53.679Z,3.75
2023-03-02T11:49:33.154Z,3.13
2023-03-02T11:52:00.703Z,3.22
2023-03-02T11:54:36.747Z,2.85
2023-03-02T11:57:03.618Z,3.03
2023-03-02T11:59:30.350Z,2.85
2023-03-02T12:01:57.435Z,2.67
2023-03-02T12:04:34.732Z,3.15
2023-03-02T12:07:15.875Z,3.55
2023-03-02T12:09:42.876Z,3.42
2023-03-02T12:12:23.071Z,2.63
2023-03-02T12:14:49.532Z,3.60
2023-03-02T12:17:19.315Z,4.43
2023-03-02T12:19:46.035Z,3.28
2023-03-02T12:22:14.668Z,2.47
2023-03-02T12:24:43.790Z,3.10
2023-03-02T12:27:12.919Z,2.97
2023-03-02T12:29:39.284Z,2.90
2023-03-02T12:32:13.751Z,2.97
2023-03-02T12:34:45.310Z,4.10
2023-03-02T12:37:17.751Z,2.85
2023-03-02T12:39:50.811Z,4.25
2023-03-02T12:42:20.225Z,4.07
2023-03-02T12:44:47.754Z,2.45
2023-03-02T12:47:16.263Z,3.80
2023-03-02T12:49:52.327Z,3.30
2023-03-02T12:52:19.165Z,3.53
2023-03-02T12:54:46.028Z,2.10
2023-03-02T12:57:19.357Z,2.40
2023-03-02T13:00:06.121Z,3.50
2023-03-02T13:02:34.332Z,1.85
2023-03-02T13:05:05.700Z,3.05
2023-03-02T13:07:36.940Z,2.45
2023-03-02T13:10:06.868Z,3.03
2023-03-02T13:12:34.318Z,2.35
2023-03-02T13:15:01.368Z,3.00
2023-03-02T13:17:30.895Z,1.80
2023-03-02T13:20:01.398Z,1.80
2023-03-02T13:22:28.802Z,1.25
2023-03-02T13:24:57.796Z,1.70
2023-03-02T13:27:25.003Z,2.55
2023-03-02T13:29:52.917Z,1.70
2023-03-02T13:32:22.135Z,1.50
2023-03-02T13:34:49.785Z,3.22
2023-03-02T13:37:19.386Z,2.17
2023-03-02T13:39:54.156Z,1.70
2023-03-02T13:42:39.302Z,2.28
2023-03-02T13:45:23.789Z,2.20
2023-03-02T13:47:50.409Z,2.30
2023-03-02T13:50:17.692Z,1.27
2023-03-02T13:52:44.044Z,1.40
2023-03-02T13:55:15.040Z,1.33
2023-03-02T13:57:41.768Z,1.10
2023-03-02T14:00:13.961Z,1.52
2023-03-02T14:02:41.801Z,1.70
2023-03-02T14:05:10.667Z,2.22
2023-03-02T14:07:37.141Z,2.10
2023-03-02T14:10:03.896Z,2.30
2023-03-02T14:12:31.400Z,2.38
2023-03-02T14:15:00.202Z,2.40
2023-03-02T14:17:26.736Z,2.17
2023-03-02T14:19:53.430Z,1.85
2023-03-02T14:22:20.082Z,1.60
2023-03-02T14:24:49.241Z,2.80
2023-03-02T14:27:16.141Z,2.08
2023-03-02T14:29:44.137Z,1.52
2023-03-02T14:32:11.012Z,1.60
2023-03-02T14:34:37.505Z,1.77
2023-03-02T14:37:05.906Z,2.00
2023-03-02T14:39:35.527Z,1.85
2023-03-02T14:42:02.061Z,2.13
2023-03-02T14:44:28.511Z,1.95
2023-03-02T14:46:55.041Z,1.50
2023-03-02T14:49:21.865Z,1.30
2023-03-02T14:52:21.482Z,1.40
2023-03-02T14:54:52.889Z,1.65
2023-03-02T14:57:20.467Z,2.60
2023-03-02T14:59:47.479Z,1.80
2023-03-02T15:02:24.800Z,1.42
2023-03-02T15:04:56.072Z,2.10
2023-03-02T15:07:23.351Z,2.00
2023-03-02T15:09:49.700Z,2.10
2023-03-02T15:12:16.172Z,2.05
2023-03-02T15:14:42.469Z,1.88
2023-03-02T15:17:10.136Z,2.15
2023-03-02T15:19:36.599Z,1.70
2023-03-02T15:22:03.968Z,2.72
2023-03-02T15:24:33.226Z,2.08
2023-03-02T15:27:00.064Z,2.58
2023-03-02T15:29:26.600Z,1.85
2023-03-02T15:31:53.117Z,3.15
2023-03-02T15:34:19.665Z,2.58
2023-03-02T15:36:46.027Z,3.17
2023-03-02T15:39:13.773Z,1.80
2023-03-02T15:41:42.128Z,1.77
2023-03-02T15:44:15.602Z,1.90
2023-03-02T15:46:42.074Z,1.42
2023-03-02T15:49:08.895Z,1.67
2023-03-02T15:51:35.181Z,2.00
2023-03-02T15:54:01.504Z,1.38
2023-03-02T15:56:32.867Z,4.28
2023-03-02T15:59:05.246Z,2.55
2023-03-02T16:01:31.752Z,2.20
2023-03-02T16:04:00.921Z,2.15
2023-03-02T16:06:27.844Z,1.75
2023-03-02T16:08:54.363Z,1.52
2023-03-02T16:11:23.302Z,1.55
2023-03-02T16:13:51.706Z,1.33
2023-03-02T16:16:19.578Z,1.60
2023-03-02T16:18:52.153Z,2.47
2023-03-02T16:21:18.623Z,1.77
2023-03-02T16:23:45.319Z,3.72
2023-03-02T16:26:13.064Z,1.98
2023-03-02T16:28:39.345Z,2.50
2023-03-02T16:31:07.258Z,1.50
2023-03-02T16:33:34.011Z,1.13
2023-03-02T16:36:00.445Z,0.80
2023-03-02T16:38:27.180Z,0.80
2023-03-02T16:40:54.986Z,1.98
2023-03-02T16:43:24.496Z,1.50
2023-03-02T16:45:51.600Z,1.83
2023-03-02T16:48:18.149Z,1.95
2023-03-02T16:50:45.101Z,1.20
2023-03-02T16:53:13.394Z,1.08
2023-03-02T16:55:39.714Z,0.90
2023-03-02T16:58:06.011Z,1.38
2023-03-02T17:00:32.464Z,0.70
2023-03-02T17:02:58.843Z,0.80
2023-03-02T17:05:25.316Z,0.77
2023-03-02T17:07:52.697Z,0.82
2023-03-02T17:10:20.958Z,1.75
2023-03-02T17:12:47.529Z,1.63
2023-03-02T17:15:14.389Z,0.90
2023-03-02T17:17:40.988Z,0.60
2023-03-02T17:20:07.682Z,0.65
2023-03-02T17:22:34.019Z,0.80
2023-03-02T17:25:01.957Z,0.68
2023-03-02T17:27:29.887Z,1.05
2023-03-02T17:29:56.300Z,0.60
2023-03-02T17:32:23.210Z,0.70
2023-03-02T17:34:50.054Z,0.63
2023-03-02T17:37:17.589Z,0.40
2023-03-02T17:39:43.996Z,0.50
2023-03-02T17:42:10.484Z,0.52
2023-03-02T17:44:40.158Z,0.50
2023-03-02T17:47:08.273Z,0.40
2023-03-02T17:49:37.695Z,0.40
2023-03-02T17:52:04.282Z,0.40
2023-03-02T17:54:30.592Z,0.30
2023-03-02T17:56:56.971Z,0.30
2023-03-02T17:59:23.283Z,0.30
2023-03-02T18:01:49.648Z,0.30
2023-03-02T18:04:16.077Z,0.30
2023-03-02T18:06:42.488Z,0.30
2023-03-02T18:09:08.837Z,0.57
2023-03-02T18:11:35.221Z,0.40
2023-03-02T18:14:01.661Z,0.47
2023-03-02T18:16:29.232Z,0.40
2023-03-02T18:18:57.249Z,0.47
2023-03-02T18:21:23.568Z,0.30
2023-03-02T18:23:49.995Z,0.45
2023-03-02T18:26:16.554Z,0.40
2023-03-02T18:28:43.122Z,0.45
2023-03-02T18:31:09.656Z,0.57
2023-03-02T18:33:36.138Z,0.50
2023-03-02T18:36:05.446Z,0.30
2023-03-02T18:38:32.474Z,0.40
2023-03-02T18:41:00.651Z,0.45
2023-03-02T18:43:27.709Z,0.75
2023-03-02T18:45:54.066Z,0.45
2023-03-02T18:48:20.399Z,0.50
2023-03-02T18:50:47.478Z,0.50
2023-03-02T18:53:13.918Z,0.50
2023-03-02T18:55:40.465Z,0.40
2023-03-02T18:58:07.665Z,0.50
2023-03-02T19:00:35.012Z,0.40
2023-03-02T19:03:01.402Z,0.50
2023-03-02T19:05:29.568Z,0.40
2023-03-02T19:07:58.934Z,0.65
2023-03-02T19:10:25.276Z,0.60
2023-03-02T19:12:51.739Z,0.50
2023-03-02T19:15:18.189Z,0.52
2023-03-02T19:17:44.632Z,0.60
2023-03-02T19:20:12.824Z,0.50
2023-03-02T19:22:39.345Z,0.50
2023-03-02T19:25:06.360Z,0.70
2023-03-02T19:27:32.675Z,0.70
2023-03-02T19:30:00.225Z,0.50
2023-03-02T19:32:26.649Z,0.60
2023-03-02T19:34:53.025Z,0.60
2023-03-02T19:37:19.397Z,1.27
2023-03-02T19:39:45.720Z,0.90
2023-03-02T19:42:12.067Z,1.00
2023-03-02T19:44:38.426Z,0.85
2023-03-02T19:47:05.001Z,0.60
2023-03-02T19:49:31.405Z,0.70
2023-03-02T19:51:58.997Z,0.70
2023-03-02T19:54:25.593Z,1.10
2023-03-02T19:56:54.004Z,0.60
2023-03-02T19:59:21.898Z,0.70
2023-03-02T20:01:55.376Z,0.70
2023-03-02T20:04:22.414Z,0.70
2023-03-02T20:06:48.831Z,0.90
2023-03-02T20:09:19.620Z,0.80
2023-03-02T20:11:46.771Z,0.88
2023-03-02T20:14:16.820Z,0.68
2023-03-02T20:16:51.638Z,0.50
2023-03-02T20:19:22.263Z,0.40
2023-03-02T20:21:48.928Z,0.52
2023-03-02T20:24:16.816Z,0.73
2023-03-02T20:26:43.177Z,0.50
2023-03-02T20:29:10.773Z,0.60
2023-03-02T20:31:37.370Z,0.70
2023-03-02T20:34:05.609Z,0.80
2023-03-02T20:36:33.695Z,0.90
2023-03-02T20:39:04.265Z,1.10
2023-03-02T20:41:30.936Z,0.70
2023-03-02T20:43:57.353Z,0.80
2023-03-02T20:46:27.090Z,0.50
2023-03-02T20:48:53.772Z,0.70
2023-03-02T20:51:20.842Z,0.50
2023-03-02T20:53:47.417Z,0.60
2023-03-02T20:56:15.233Z,0.70
2023-03-02T20:58:43.286Z,0.65
2023-03-02T21:01:11.447Z,0.50
2023-03-02T21:03:38.370Z,0.60
2023-03-02T21:06:05.446Z,0.50
2023-03-02T21:08:34.166Z,0.57
2023-03-02T21:11:00.569Z,0.50
2023-03-02T21:13:27.055Z,0.80
2023-03-02T21:15:53.601Z,0.82
2023-03-02T21:18:20.216Z,0.93
2023-03-02T21:20:46.552Z,1.45
2023-03-02T21:23:12.962Z,0.82
2023-03-02T21:25:42.105Z,1.40
2023-03-02T21:28:08.791Z,1.05
2023-03-02T21:30:35.716Z,1.00
2023-03-02T21:33:02.432Z,1.27
2023-03-02T21:35:29.519Z,1.70
2023-03-02T21:37:57.831Z,1.02
2023-03-02T21:40:26.002Z,1.35
2023-03-02T21:42:52.429Z,1.40
2023-03-02T21:45:18.932Z,0.90
2023-03-02T21:47:45.625Z,0.70
2023-03-02T21:50:12.992Z,0.60
2023-03-02T21:52:42.354Z,0.40
2023-03-02T21:55:08.993Z,0.55
2023-03-02T21:57:35.663Z,0.60
2023-03-02T22:00:04.551Z,0.63
2023-03-02T22:02:31.329Z,0.35
2023-03-02T22:04:57.670Z,0.60
2023-03-02T22:07:24.078Z,0.70
2023-03-02T22:09:50.542Z,0.90
2023-03-02T22:12:16.978Z,0.77
2023-03-02T22:14:43.427Z,0.68
2023-03-02T22:17:15.623Z,0.90
2023-03-02T22:19:42.762Z,0.70
2023-03-02T22:22:21.991Z,0.77
2023-03-02T22:24:49.408Z,0.60
2023-03-02T22:27:26.055Z,0.80
2023-03-02T22:29:54.472Z,0.60
2023-03-02T22:32:22.619Z,0.90
2023-03-02T22:34:50.689Z,0.60
2023-03-02T22:37:18.741Z,0.80
2023-03-02T22:39:45.601Z,0.80
2023-03-02T22:42:12.239Z,0.70
2023-03-02T22:44:38.664Z,0.73
2023-03-02T22:47:20.793Z,0.60
2023-03-02T22:49:47.813Z,0.90
2023-03-02T22:52:17.271Z,1.20
2023-03-02T22:54:43.621Z,1.17
2023-03-02T22:57:17.150Z,1.63
2023-03-02T22:59:43.554Z,1.13
2023-03-02T23:02:14.950Z,0.80
2023-03-02T23:04:41.429Z,0.70
2023-03-02T23:07:16.607Z,1.00
2023-03-02T23:09:43.089Z,0.70
2023-03-02T23:12:18.982Z,0.80
2023-03-02T23:14:51.565Z,0.60
2023-03-02T23:17:21.504Z,0.77
2023-03-02T23:19:49.860Z,0.70
2023-03-02T23:22:16.322Z,0.85
2023-03-02T23:24:43.680Z,0.90
2023-03-02T23:27:10.500Z,0.98
2023-03-02T23:29:37.241Z,1.00
2023-03-02T23:32:03.806Z,0.95
2023-03-02T23:34:31.278Z,0.80
2023-03-02T23:36:58.630Z,1.08
2023-03-02T23:39:25.260Z,1.20
2023-03-02T23:41:51.806Z,1.05
2023-03-02T23:44:19.320Z,0.80
2023-03-02T23:46:46.078Z,0.90
2023-03-02T23:49:12.653Z,0.80
2023-03-02T23:51:39.066Z,0.95
2023-03-02T23:54:05.465Z,0.90
2023-03-02T23:56:31.819Z,0.75
2023-03-02T23:58:58.174Z,0.70
